createdAt,value
2023-02-01T00:00:23.402Z,3.23
2023-02-01T00:03:26.203Z,3.24
2023-02-01T00:06:00.646Z,3.24
2023-02-01T00:08:30.961Z,3.28
2023-02-01T00:11:11.322Z,3.34
2023-02-01T00:13:43.303Z,3.36
2023-02-01T00:16:19.373Z,3.35
2023-02-01T00:18:52.321Z,3.38
2023-02-01T00:21:23.262Z,3.43
2023-02-01T00:23:53.476Z,3.48
2023-02-01T00:26:45.227Z,3.49
2023-02-01T00:29:21.262Z,3.51
2023-02-01T00:31:53.431Z,3.51
2023-02-01T00:34:23.237Z,3.52
2023-02-01T00:36:53.230Z,3.60
2023-02-01T00:39:23.276Z,3.63
2023-02-01T00:41:53.696Z,3.63
2023-02-01T00:44:23.615Z,3.63
2023-02-01T00:46:53.498Z,3.63
2023-02-01T00:49:23.356Z,3.62
2023-02-01T00:51:53.074Z,3.62
2023-02-01T00:54:23.086Z,3.73
2023-02-01T00:56:52.976Z,3.73
2023-02-01T00:59:22.900Z,3.73
2023-02-01T01:01:52.884Z,3.73
2023-02-01T01:04:23.040Z,3.74
2023-02-01T01:06:52.962Z,3.78
2023-02-01T01:09:22.757Z,3.76
2023-02-01T01:11:54.014Z,3.75
2023-02-01T01:14:24.043Z,3.74
2023-02-01T01:16:53.840Z,3.70
2023-02-01T01:19:23.656Z,3.72
2023-02-01T01:21:53.583Z,3.70
2023-02-01T01:24:23.482Z,3.66
2023-02-01T01:26:53.346Z,3.64
2023-02-01T01:29:23.517Z,3.60
2023-02-01T01:31:53.692Z,3.56
2023-02-01T01:34:23.554Z,3.57
2023-02-01T01:36:53.373Z,3.51
2023-02-01T01:39:23.304Z,3.53
2023-02-01T01:41:53.076Z,3.51
2023-02-01T01:45:05.725Z,3.52
2023-02-01T01:47:42.674Z,3.52
2023-02-01T01:50:21.337Z,3.49
2023-02-01T01:52:56.418Z,3.48
2023-02-01T01:55:29.215Z,3.44
2023-02-01T01:58:07.440Z,3.43
2023-02-01T02:00:38.247Z,3.40
2023-02-01T02:03:30.494Z,3.40
2023-02-01T02:06:02.181Z,3.41
2023-02-01T02:08:32.276Z,3.48
2023-02-01T02:11:02.521Z,3.47
2023-02-01T02:13:39.854Z,3.46
2023-02-01T02:16:37.549Z,3.49
2023-02-01T02:19:47.496Z,3.43
2023-02-01T02:22:50.095Z,3.34
2023-02-01T02:25:44.796Z,3.43
2023-02-01T02:28:40.041Z,3.41
2023-02-01T02:31:42.516Z,3.40
2023-02-01T02:34:55.395Z,3.40
2023-02-01T02:38:16.303Z,3.37
2023-02-01T02:41:34.957Z,3.38
2023-02-01T02:44:40.024Z,3.44
2023-02-01T02:47:26.405Z,3.45
2023-02-01T02:50:52.246Z,3.45
2023-02-01T02:54:05.159Z,3.41
2023-02-01T02:56:55.332Z,3.41
2023-02-01T02:59:48.395Z,3.49
2023-02-01T03:02:38.113Z,3.52
2023-02-01T03:05:08.496Z,3.50
2023-02-01T03:08:05.863Z,3.51
2023-02-01T03:10:57.484Z,3.51
2023-02-01T03:13:42.566Z,3.45
2023-02-01T03:16:35.332Z,3.45
2023-02-01T03:19:14.375Z,3.50
2023-02-01T03:24:35.874Z,3.47
2023-02-01T03:27:52.680Z,3.43
2023-02-01T03:30:33.506Z,3.35
2023-02-01T03:33:15.036Z,3.37
2023-02-01T03:35:44.754Z,3.38
2023-02-01T03:38:57.158Z,3.37
2023-02-01T03:41:43.981Z,3.29
2023-02-01T03:44:43.477Z,3.20
2023-02-01T03:47:21.373Z,3.12
2023-02-01T03:49:56.934Z,3.08
2023-02-01T03:52:44.259Z,3.03
2023-02-01T03:55:17.858Z,3.00
2023-02-01T03:57:56.579Z,3.02
2023-02-01T04:00:28.754Z,3.04
2023-02-01T04:02:59.078Z,2.99
2023-02-01T04:05:29.188Z,3.01
2023-02-01T04:07:59.955Z,3.03
2023-02-01T04:10:30.264Z,3.07
2023-02-01T04:13:00.160Z,3.07
2023-02-01T04:15:29.984Z,3.06
2023-02-01T04:17:59.779Z,3.03
2023-02-01T04:20:29.901Z,3.02
2023-02-01T04:22:59.911Z,3.06
2023-02-01T04:25:31.133Z,3.12
2023-02-01T04:28:00.983Z,3.15
2023-02-01T04:30:30.921Z,3.16
2023-02-01T04:33:00.918Z,3.16
2023-02-01T04:35:30.722Z,3.10
2023-02-01T04:38:01.435Z,3.19
2023-02-01T04:40:31.183Z,3.25
2023-02-01T04:43:02.843Z,3.27
2023-02-01T04:45:32.736Z,3.30
2023-02-01T04:48:02.459Z,3.30
2023-02-01T04:50:32.802Z,3.29
2023-02-01T04:53:02.609Z,3.27
2023-02-01T04:55:32.497Z,3.32
2023-02-01T04:58:02.324Z,3.33
2023-02-01T05:00:32.217Z,3.32
2023-02-01T05:03:02.359Z,3.33
2023-02-01T05:05:32.274Z,3.32
2023-02-01T05:08:01.965Z,3.32
2023-02-01T05:10:31.975Z,3.35
2023-02-01T05:13:20.344Z,3.41
2023-02-01T05:15:52.589Z,3.44
2023-02-01T05:18:22.521Z,3.44
2023-02-01T05:20:52.451Z,3.43
2023-02-01T05:23:22.466Z,3.42
2023-02-01T05:25:52.362Z,3.41
2023-02-01T05:28:22.185Z,3.39
2023-02-01T05:30:52.176Z,3.45
2023-02-01T05:33:22.218Z,3.45
2023-02-01T05:35:52.135Z,3.43
2023-02-01T05:38:22.136Z,3.44
2023-02-01T05:40:52.062Z,3.45
2023-02-01T05:43:21.973Z,3.44
2023-02-01T05:45:53.883Z,3.46
2023-02-01T05:48:23.764Z,3.50
2023-02-01T05:50:54.395Z,3.49
2023-02-01T05:53:24.695Z,3.48
2023-02-01T05:55:54.485Z,3.42
2023-02-01T05:58:24.370Z,3.40
2023-02-01T06:00:54.560Z,3.39
2023-02-01T06:03:24.569Z,3.47
2023-02-01T06:05:54.990Z,3.50
2023-02-01T06:08:26.964Z,3.52
2023-02-01T06:11:06.274Z,3.49
2023-02-01T06:13:36.526Z,3.46
2023-02-01T06:16:08.744Z,3.45
2023-02-01T06:18:39.123Z,3.43
2023-02-01T06:21:09.873Z,3.47
2023-02-01T06:23:39.756Z,3.47
2023-02-01T06:26:10.599Z,3.43
2023-02-01T06:28:40.615Z,3.45
2023-02-01T06:31:11.123Z,3.45
2023-02-01T06:33:41.816Z,3.45
2023-02-01T06:36:17.171Z,3.46
2023-02-01T06:38:47.086Z,3.52
2023-02-01T06:41:18.288Z,3.52
2023-02-01T06:43:48.406Z,3.51
2023-02-01T06:46:19.262Z,3.54
2023-02-01T06:48:50.579Z,3.55
2023-02-01T06:51:28.478Z,3.56
2023-02-01T06:53:59.163Z,3.57
2023-02-01T06:56:29.241Z,3.60
2023-02-01T06:58:59.136Z,3.69
2023-02-01T07:01:29.166Z,3.67
2023-02-01T07:03:59.410Z,3.66
2023-02-01T07:06:29.298Z,3.65
2023-02-01T07:08:59.198Z,3.65
2023-02-01T07:11:29.713Z,3.64
2023-02-01T07:14:00.589Z,3.68
2023-02-01T07:16:30.424Z,3.71
2023-02-01T07:19:01.024Z,3.70
2023-02-01T07:21:31.047Z,3.66
2023-02-01T07:24:01.262Z,3.67
2023-02-01T07:26:31.302Z,3.68
2023-02-01T07:29:01.398Z,3.66
2023-02-01T07:31:31.614Z,3.74
2023-02-01T07:34:02.172Z,3.77
2023-02-01T07:36:32.381Z,3.77
2023-02-01T07:39:02.375Z,3.72
2023-02-01T07:41:32.587Z,3.69
2023-02-01T07:44:02.677Z,3.68
2023-02-01T07:46:32.741Z,3.66
2023-02-01T07:49:03.284Z,3.72
2023-02-01T07:51:33.898Z,3.73
2023-02-01T07:54:03.924Z,3.76
2023-02-01T07:56:33.945Z,3.77
2023-02-01T07:59:04.114Z,3.76
2023-02-01T08:01:34.283Z,3.72
2023-02-01T08:04:05.856Z,3.73
2023-02-01T08:06:35.958Z,3.79
2023-02-01T08:09:07.291Z,3.75
2023-02-01T08:11:39.100Z,3.75
2023-02-01T08:14:08.998Z,3.75
2023-02-01T08:16:40.704Z,3.70
2023-02-01T08:19:10.547Z,3.71
2023-02-01T08:21:40.684Z,3.76
2023-02-01T08:24:11.708Z,3.82
2023-02-01T08:26:41.753Z,3.87
2023-02-01T08:29:13.898Z,3.88
2023-02-01T08:31:44.639Z,3.87
2023-02-01T08:34:14.537Z,3.86
2023-02-01T08:36:44.670Z,3.82
2023-02-01T08:39:14.679Z,3.81
2023-02-01T08:42:04.563Z,3.85
2023-02-01T08:44:35.101Z,3.88
2023-02-01T08:47:05.376Z,3.85
2023-02-01T08:49:35.320Z,3.85
2023-02-01T08:52:10.651Z,3.86
2023-02-01T08:54:45.504Z,3.88
2023-02-01T08:57:16.036Z,3.89
2023-02-01T08:59:46.042Z,3.90
2023-02-01T09:02:18.841Z,3.89
2023-02-01T09:04:48.740Z,3.89
2023-02-01T09:07:19.020Z,3.92
2023-02-01T09:09:49.275Z,3.98
2023-02-01T09:12:19.321Z,4.03
2023-02-01T09:14:49.837Z,4.17
2023-02-01T09:17:19.955Z,4.26
2023-02-01T09:19:52.413Z,4.26
2023-02-01T09:22:22.852Z,4.25
2023-02-01T09:24:55.313Z,4.26
2023-02-01T09:27:25.281Z,4.27
2023-02-01T09:29:55.472Z,4.29
2023-02-01T09:32:26.152Z,4.31
2023-02-01T09:34:56.035Z,4.34
2023-02-01T09:37:26.017Z,4.41
2023-02-01T09:39:55.844Z,4.44
2023-02-01T09:42:32.057Z,4.48
2023-02-01T09:45:30.382Z,4.52
2023-02-01T09:48:10.236Z,4.55
2023-02-01T09:50:45.155Z,4.62
2023-02-01T09:53:44.477Z,4.76
2023-02-01T09:56:30.964Z,4.92
2023-02-01T09:59:15.119Z,4.97
2023-02-01T10:01:45.475Z,5.02
2023-02-01T10:04:18.564Z,5.01
2023-02-01T10:06:56.017Z,4.97
2023-02-01T10:10:16.617Z,4.92
2023-02-01T10:13:05.086Z,4.93
2023-02-01T10:15:50.518Z,4.94
2023-02-01T10:19:19.250Z,4.98
2023-02-01T10:21:58.792Z,4.97
2023-02-01T10:24:37.717Z,4.98
2023-02-01T10:27:23.396Z,4.95
2023-02-01T10:30:08.716Z,4.94
2023-02-01T10:32:42.243Z,4.95
2023-02-01T10:35:20.523Z,4.94
2023-02-01T10:37:51.937Z,4.92
2023-02-01T10:40:27.445Z,4.86
2023-02-01T10:43:04.258Z,4.90
2023-02-01T10:45:35.471Z,4.93
2023-02-01T10:48:06.195Z,4.89
2023-02-01T10:50:43.003Z,4.88
2023-02-01T10:53:30.637Z,4.92
2023-02-01T10:56:09.059Z,4.95
2023-02-01T10:58:48.396Z,5.10
2023-02-01T11:01:23.596Z,5.17
2023-02-01T11:03:55.077Z,5.27
2023-02-01T11:06:43.643Z,5.35
2023-02-01T11:09:25.949Z,5.43
2023-02-01T11:11:59.870Z,5.50
2023-02-01T11:14:41.399Z,5.51
2023-02-01T11:17:29.085Z,5.42
2023-02-01T11:20:07.847Z,5.46
2023-02-01T11:22:38.117Z,5.52
2023-02-01T11:25:12.264Z,5.48
2023-02-01T11:27:53.219Z,5.50
2023-02-01T11:30:44.454Z,5.48
2023-02-01T11:33:21.751Z,5.41
2023-02-01T11:35:53.415Z,5.37
2023-02-01T11:38:35.657Z,5.32
2023-02-01T11:41:26.559Z,5.25
2023-02-01T11:44:02.815Z,5.23
2023-02-01T11:46:36.859Z,5.23
2023-02-01T11:49:26.717Z,5.27
2023-02-01T11:52:39.491Z,5.21
2023-02-01T11:55:59.461Z,5.21
2023-02-01T11:59:03.338Z,5.21
2023-02-01T12:02:48.469Z,5.28
2023-02-01T12:05:47.925Z,5.43
2023-02-01T12:08:51.839Z,5.56
2023-02-01T12:11:39.056Z,5.57
2023-02-01T12:15:05.902Z,5.58
2023-02-01T12:17:57.255Z,5.57
2023-02-01T12:21:00.434Z,5.45
2023-02-01T12:23:47.016Z,5.38
2023-02-01T12:26:32.131Z,5.35
2023-02-01T12:29:35.795Z,5.30
2023-02-01T12:32:16.981Z,5.26
2023-02-01T12:34:58.579Z,5.27
2023-02-01T12:37:57.031Z,5.28
2023-02-01T12:40:45.393Z,5.32
2023-02-01T12:43:26.422Z,5.38
2023-02-01T12:46:12.523Z,5.38
2023-02-01T12:48:49.858Z,5.39
2023-02-01T12:51:43.118Z,5.45
2023-02-01T12:54:24.696Z,5.46
2023-02-01T12:57:04.352Z,5.43
2023-02-01T12:59:52.512Z,5.45
2023-02-01T13:03:11.245Z,5.46
2023-02-01T13:06:06.399Z,5.55
2023-02-01T13:08:58.076Z,5.57
2023-02-01T13:11:35.018Z,5.53
2023-02-01T13:14:56.996Z,5.43
2023-02-01T13:17:33.764Z,5.34
2023-02-01T13:20:34.614Z,5.26
2023-02-01T13:23:23.255Z,5.18
2023-02-01T13:25:54.569Z,5.17
2023-02-01T13:28:32.105Z,5.22
2023-02-01T13:31:02.887Z,5.26
2023-02-01T13:33:58.374Z,5.18
2023-02-01T13:36:37.115Z,5.22
2023-02-01T13:39:58.356Z,5.20
2023-02-01T13:42:52.682Z,5.14
2023-02-01T13:45:28.119Z,5.05
2023-02-01T13:48:03.496Z,5.17
2023-02-01T13:50:40.159Z,5.17
2023-02-01T13:53:28.876Z,5.15
2023-02-01T13:56:15.916Z,5.10
2023-02-01T13:58:49.293Z,5.06
2023-02-01T14:01:22.895Z,4.97
2023-02-01T14:03:58.851Z,4.90
2023-02-01T14:06:29.478Z,4.93
2023-02-01T14:09:21.681Z,4.86
2023-02-01T14:12:02.558Z,4.88
2023-02-01T14:14:35.660Z,4.84
2023-02-01T14:17:15.041Z,4.83
2023-02-01T14:19:49.558Z,4.80
2023-02-01T14:22:27.142Z,4.82
2023-02-01T14:25:12.735Z,4.88
2023-02-01T14:27:46.564Z,4.93
2023-02-01T14:30:24.754Z,4.95
2023-02-01T14:32:57.917Z,4.93
2023-02-01T14:35:31.122Z,4.93
2023-02-01T14:38:07.867Z,4.90
2023-02-01T14:40:41.435Z,4.86
2023-02-01T14:43:32.868Z,4.83
2023-02-01T14:46:12.845Z,4.81
2023-02-01T14:48:50.923Z,4.83
2023-02-01T14:51:30.600Z,4.88
2023-02-01T14:54:20.200Z,4.88
2023-02-01T14:56:55.916Z,4.89
2023-02-01T14:59:34.602Z,4.86
2023-02-01T15:02:24.948Z,4.84
2023-02-01T15:05:02.201Z,4.84
2023-02-01T15:07:36.594Z,4.85
2023-02-01T15:10:12.764Z,4.92
2023-02-01T15:12:53.550Z,4.90
2023-02-01T15:15:31.755Z,4.88
2023-02-01T15:18:26.928Z,4.90
2023-02-01T15:21:09.661Z,4.89
2023-02-01T15:24:14.858Z,4.83
2023-02-01T15:26:51.362Z,4.82
2023-02-01T15:29:34.309Z,4.85
2023-02-01T15:32:06.273Z,4.88
2023-02-01T15:34:51.307Z,4.88
2023-02-01T15:37:23.799Z,4.81
2023-02-01T15:40:13.085Z,4.77
2023-02-01T15:43:00.432Z,4.71
2023-02-01T15:45:34.840Z,4.75
2023-02-01T15:48:22.756Z,4.76
2023-02-01T15:50:56.924Z,4.73
2023-02-01T15:53:32.405Z,4.72
2023-02-01T15:56:06.123Z,4.73
2023-02-01T15:58:37.117Z,4.70
2023-02-01T16:01:08.162Z,4.65
2023-02-01T16:03:49.668Z,4.62
2023-02-01T16:06:22.815Z,4.61
2023-02-01T16:09:10.600Z,4.62
2023-02-01T16:11:58.651Z,4.51
2023-02-01T16:14:29.407Z,4.52
2023-02-01T16:17:00.836Z,4.48
2023-02-01T16:19:30.996Z,4.48
2023-02-01T16:22:01.594Z,4.51
2023-02-01T16:24:33.918Z,4.54
2023-02-01T16:27:06.718Z,4.55
2023-02-01T16:29:37.115Z,4.48
2023-02-01T16:32:08.179Z,4.42
2023-02-01T16:34:38.766Z,4.39
2023-02-01T16:37:18.198Z,4.38
2023-02-01T16:39:48.677Z,4.42
2023-02-01T16:42:19.599Z,4.42
2023-02-01T16:44:50.438Z,4.35
2023-02-01T16:47:24.235Z,4.28
2023-02-01T16:49:54.525Z,4.24
2023-02-01T16:52:28.077Z,4.24
2023-02-01T16:54:58.885Z,4.26
2023-02-01T16:57:30.635Z,4.26
2023-02-01T17:00:14.607Z,4.24
2023-02-01T17:02:54.503Z,4.24
2023-02-01T17:05:25.866Z,4.27
2023-02-01T17:08:05.244Z,4.23
2023-02-01T17:10:35.723Z,4.22
2023-02-01T17:13:06.598Z,4.19
2023-02-01T17:15:37.682Z,4.22
2023-02-01T17:18:16.093Z,4.25
2023-02-01T17:20:48.880Z,4.26
2023-02-01T17:23:21.360Z,4.25
2023-02-01T17:25:51.797Z,4.28
2023-02-01T17:28:22.247Z,4.29
2023-02-01T17:30:52.694Z,4.28
2023-02-01T17:33:35.980Z,4.33
2023-02-01T17:36:07.880Z,4.35
2023-02-01T17:38:38.277Z,4.38
2023-02-01T17:41:13.434Z,4.40
2023-02-01T17:43:43.797Z,4.38
2023-02-01T17:46:18.946Z,4.33
2023-02-01T17:48:49.260Z,4.27
2023-02-01T17:51:27.647Z,4.24
2023-02-01T17:53:57.973Z,4.21
2023-02-01T17:56:29.084Z,4.21
2023-02-01T17:59:00.415Z,4.18
2023-02-01T18:01:31.025Z,4.15
2023-02-01T18:04:01.244Z,4.12
2023-02-01T18:06:37.562Z,4.09
2023-02-01T18:09:08.880Z,4.09
2023-02-01T18:11:39.480Z,4.13
2023-02-01T18:14:16.161Z,4.13
2023-02-01T18:16:46.521Z,4.10
2023-02-01T18:19:16.913Z,4.11
2023-02-01T18:21:47.195Z,4.08
2023-02-01T18:24:19.558Z,4.06
2023-02-01T18:26:50.154Z,3.98
2023-02-01T18:29:20.562Z,4.06
2023-02-01T18:31:51.376Z,4.06
2023-02-01T18:34:22.921Z,4.08
2023-02-01T18:36:53.969Z,4.07
2023-02-01T18:39:24.557Z,4.02
2023-02-01T18:41:54.750Z,3.85
2023-02-01T18:44:25.288Z,3.76
2023-02-01T18:46:55.592Z,3.66
2023-02-01T18:49:26.442Z,3.60
2023-02-01T18:51:56.822Z,3.59
2023-02-01T18:54:28.596Z,3.54
2023-02-01T18:56:58.807Z,3.54
2023-02-01T18:59:29.264Z,3.62
2023-02-01T19:01:59.518Z,3.67
2023-02-01T19:04:30.566Z,3.66
2023-02-01T19:07:01.634Z,3.64
2023-02-01T19:09:32.637Z,3.59
2023-02-01T19:12:03.760Z,3.57
2023-02-01T19:14:34.205Z,3.59
2023-02-01T19:17:04.281Z,3.58
2023-02-01T19:19:34.565Z,3.56
2023-02-01T19:22:04.766Z,3.54
2023-02-01T19:24:34.997Z,3.55
2023-02-01T19:27:05.445Z,3.53
2023-02-01T19:29:49.764Z,3.58
2023-02-01T19:32:27.479Z,3.55
2023-02-01T19:35:23.496Z,3.57
2023-02-01T19:38:06.161Z,3.55
2023-02-01T19:40:46.603Z,3.56
2023-02-01T19:43:20.278Z,3.56
2023-02-01T19:45:51.637Z,3.53
2023-02-01T19:48:22.398Z,3.56
2023-02-01T19:50:52.717Z,3.55
2023-02-01T19:53:25.316Z,3.52
2023-02-01T19:56:03.320Z,3.47
2023-02-01T19:58:39.249Z,3.38
2023-02-01T20:01:11.926Z,3.38
2023-02-01T20:03:42.376Z,3.40
2023-02-01T20:06:12.936Z,3.40
2023-02-01T20:08:43.125Z,3.38
2023-02-01T20:11:13.736Z,3.39
2023-02-01T20:13:43.866Z,3.37
2023-02-01T20:16:14.546Z,3.37
2023-02-01T20:18:44.865Z,3.38
2023-02-01T20:21:16.348Z,3.41
2023-02-01T20:23:47.735Z,3.43
2023-02-01T20:26:24.293Z,3.42
2023-02-01T20:28:55.967Z,3.38
2023-02-01T20:31:29.107Z,3.30
2023-02-01T20:34:01.251Z,3.33
2023-02-01T20:36:34.215Z,3.34
2023-02-01T20:39:05.338Z,3.37
2023-02-01T20:41:35.978Z,3.38
2023-02-01T20:44:06.297Z,3.34
2023-02-01T20:46:36.510Z,3.31
2023-02-01T20:49:12.234Z,3.30
2023-02-01T20:51:56.536Z,3.24
2023-02-01T20:54:31.187Z,3.21
2023-02-01T20:57:05.078Z,3.18
2023-02-01T20:59:41.869Z,3.28
2023-02-01T21:02:12.832Z,3.36
2023-02-01T21:04:43.231Z,3.34
2023-02-01T21:07:14.190Z,3.44
2023-02-01T21:09:45.353Z,3.45
2023-02-01T21:12:15.670Z,3.47
2023-02-01T21:14:46.072Z,3.46
2023-02-01T21:17:16.474Z,3.49
2023-02-01T21:19:46.594Z,3.50
2023-02-01T21:22:17.082Z,3.51
2023-02-01T21:24:48.074Z,3.52
2023-02-01T21:27:18.557Z,3.50
2023-02-01T21:29:48.638Z,3.50
2023-02-01T21:32:18.994Z,3.49
2023-02-01T21:34:54.477Z,3.51
2023-02-01T21:37:30.236Z,3.51
2023-02-01T21:40:04.880Z,3.51
2023-02-01T21:42:39.462Z,3.51
2023-02-01T21:45:11.477Z,3.50
2023-02-01T21:47:41.726Z,3.52
2023-02-01T21:50:20.679Z,3.51
2023-02-01T21:52:52.611Z,3.60
2023-02-01T21:55:23.442Z,3.60
2023-02-01T21:57:53.877Z,3.61
2023-02-01T22:00:24.374Z,3.60
2023-02-01T22:02:54.959Z,3.59
2023-02-01T22:05:25.867Z,3.63
2023-02-01T22:07:56.635Z,3.69
2023-02-01T22:10:26.797Z,3.70
2023-02-01T22:12:57.114Z,3.70
2023-02-01T22:15:29.473Z,3.65
2023-02-01T22:17:59.879Z,3.65
2023-02-01T22:20:30.488Z,3.64
2023-02-01T22:23:00.720Z,3.61
2023-02-01T22:25:32.151Z,3.63
2023-02-01T22:28:32.866Z,3.68
2023-02-01T22:30:53.200Z,3.70
2023-02-01T22:33:23.356Z,3.76
2023-02-01T22:35:53.309Z,3.83
2023-02-01T22:38:23.395Z,3.82
2023-02-01T22:41:02.267Z,3.82
2023-02-01T22:43:34.426Z,3.81
2023-02-01T22:46:12.959Z,3.78
2023-02-01T22:48:45.587Z,3.83
2023-02-01T22:51:23.781Z,3.84
2023-02-01T22:53:58.242Z,3.80
2023-02-01T22:56:39.703Z,3.75
2023-02-01T22:59:13.496Z,3.76
2023-02-01T23:01:45.312Z,3.74
2023-02-01T23:04:15.851Z,3.69
2023-02-01T23:06:46.701Z,3.66
2023-02-01T23:09:25.392Z,3.67
2023-02-01T23:11:56.225Z,3.68
2023-02-01T23:14:26.567Z,3.66
2023-02-01T23:16:57.018Z,3.64
2023-02-01T23:19:27.359Z,3.51
2023-02-01T23:21:58.850Z,3.53
2023-02-01T23:24:29.156Z,3.43
2023-02-01T23:26:59.598Z,3.31
2023-02-01T23:29:30.121Z,3.18
2023-02-01T23:32:00.293Z,3.09
2023-02-01T23:34:30.719Z,3.04
2023-02-01T23:37:01.397Z,2.97
2023-02-01T23:39:33.358Z,2.92
2023-02-01T23:42:05.315Z,2.92
2023-02-01T23:44:35.918Z,2.67
2023-02-01T23:47:06.241Z,2.91
2023-02-01T23:49:36.679Z,2.91
2023-02-01T23:52:07.478Z,2.88
2023-02-01T23:54:38.057Z,2.87
2023-02-01T23:57:08.557Z,2.87
2023-02-01T23:59:40.317Z,2.91
